Terminal Aerodrome Forecast
Issued by NWS

Home | Current Version | Previous Version | Text Only | Print | Product List | Glossary On
Versions: 1 2 3 4 5 6 7 8 9 10 11 12 13 14 15 16
000
FTUS43 KSGF 181120
TAFJLN
TAF
KJLN 181120Z 1812/1912 18006KT P6SM FEW250
     FM181800 21009KT P6SM SCT250
     FM190500 20008KT P6SM BKN100 PROB30 1905/1909 P6SM TS BKN030CB=

USA.gov is the U.S. government's official web portal to all federal, state and local government web resources and services.